Time;durP1;ratioP1;P1;durP2;ratioP2;P2;SDS_P1;SDS_P2;PMS_P1;PMS_P2;Temp;Humidity;BMP_temperature;BMP_pressure;BME280_temperature;BME280_humidity;BME280_pressure;Samples;Min_cycle;Max_cycle;Signal;HPM_P1;HPM_P2
2023/07/29 00:00:12;;;;;;;4.53;1.20;;;16.70;99.90;;;;;;5043434;28;20046;-58
2023/07/29 00:02:42;;;;;;;4.78;1.15;;;16.70;99.90;;;;;;5035648;28;20536;-56
2023/07/29 00:05:09;;;;;;;3.47;1.25;;;16.70;99.90;;;;;;5043165;28;20045;-56
2023/07/29 00:07:37;;;;;;;2.92;1.20;;;16.60;99.90;;;;;;5047202;28;20053;-56
2023/07/29 00:10:06;;;;;;;2.65;1.00;;;16.60;99.90;;;;;;5043324;28;20382;-57
2023/07/29 00:12:34;;;;;;;2.40;1.02;;;16.60;99.90;;;;;;5044937;28;20052;-60
2023/07/29 00:15:01;;;;;;;2.70;1.00;;;16.60;99.90;;;;;;5042269;28;20500;-63
2023/07/29 00:17:29;;;;;;;2.65;1.30;;;16.50;99.90;;;;;;5045147;28;20404;-64
2023/07/29 00:19:57;;;;;;;1.45;1.30;;;16.50;99.90;;;;;;5032616;28;20427;-60
2023/07/29 00:22:24;;;;;;;4.38;1.05;;;16.50;99.90;;;;;;5047430;28;20055;-64
2023/07/29 00:24:57;;;;;;;7.63;1.60;;;16.50;99.90;;;;;;5044390;28;20044;-64
2023/07/29 00:27:25;;;;;;;3.33;1.38;;;16.50;99.90;;;;;;5047883;28;20052;-64
2023/07/29 00:29:55;;;;;;;4.80;1.33;;;16.40;99.90;;;;;;5036715;28;20037;-62
2023/07/29 00:32:23;;;;;;;4.25;1.42;;;16.40;99.90;;;;;;5043639;28;20477;-60
2023/07/29 00:34:50;;;;;;;2.30;0.93;;;16.40;99.90;;;;;;5046650;28;20150;-62
2023/07/29 00:37:18;;;;;;;6.40;1.50;;;16.30;99.90;;;;;;5048981;28;20045;-61
2023/07/29 00:39:46;;;;;;;1.60;0.98;;;16.30;99.90;;;;;;5041920;28;20033;-64
2023/07/29 00:42:14;;;;;;;2.90;1.00;;;16.30;99.90;;;;;;5044698;28;20051;-59
2023/07/29 00:44:42;;;;;;;2.85;1.20;;;16.30;99.90;;;;;;5045250;28;20056;-64
2023/07/29 00:47:12;;;;;;;2.92;1.20;;;16.20;99.90;;;;;;5045541;28;20519;-63
2023/07/29 00:49:40;;;;;;;3.25;1.10;;;16.20;99.90;;;;;;5044706;28;20048;-64
2023/07/29 00:52:08;;;;;;;5.53;1.38;;;16.20;99.90;;;;;;5044261;28;20390;-61
2023/07/29 00:54:35;;;;;;;5.25;1.15;;;16.20;99.90;;;;;;5048412;28;20052;-57
2023/07/29 00:57:04;;;;;;;2.05;1.30;;;16.20;99.90;;;;;;5045403;28;20508;-61
2023/07/29 00:59:31;;;;;;;3.63;1.25;;;16.20;99.90;;;;;;5043711;28;20056;-62
2023/07/29 01:02:00;;;;;;;1.92;0.80;;;16.20;99.90;;;;;;5040936;28;20045;-63
2023/07/29 01:04:28;;;;;;;3.90;1.25;;;16.10;99.90;;;;;;5039998;28;20053;-64
2023/07/29 01:07:02;;;;;;;3.90;1.33;;;16.20;99.90;;;;;;5042788;28;20041;-58
2023/07/29 01:09:42;;;;;;;1.90;0.90;;;16.10;99.90;;;;;;5052589;28;20048;-60
2023/07/29 01:12:37;;;;;;;4.97;1.30;;;16.10;99.90;;;;;;5036977;28;20050;-63
2023/07/29 01:15:26;;;;;;;2.22;1.10;;;16.10;99.90;;;;;;5046258;28;20045;-61
2023/07/29 01:18:03;;;;;;;5.03;1.15;;;16.10;99.90;;;;;;5042273;28;20056;-64
2023/07/29 01:20:34;;;;;;;6.18;1.42;;;16.10;99.90;;;;;;5045501;28;20042;-63
2023/07/29 01:23:01;;;;;;;2.00;1.10;;;16.10;99.90;;;;;;5034034;28;20049;-60
2023/07/29 01:25:29;;;;;;;2.15;1.00;;;16.00;99.90;;;;;;5047884;28;20045;-61
2023/07/29 01:27:58;;;;;;;1.90;1.13;;;16.00;99.90;;;;;;5046125;28;20052;-58
2023/07/29 01:30:30;;;;;;;2.22;1.92;;;16.00;99.90;;;;;;5043410;28;20044;-60
2023/07/29 01:33:09;;;;;;;6.05;1.30;;;16.00;99.90;;;;;;5029148;28;20480;-62
2023/07/29 01:35:50;;;;;;;3.42;1.00;;;15.90;99.90;;;;;;5051182;28;20052;-59
2023/07/29 01:38:23;;;;;;;2.10;0.88;;;15.90;99.90;;;;;;5050712;28;20048;-57
2023/07/29 01:40:52;;;;;;;3.67;1.10;;;15.90;99.90;;;;;;5064706;28;20040;-56
2023/07/29 01:43:23;;;;;;;2.75;1.15;;;15.80;99.90;;;;;;5046842;28;20045;-57
2023/07/29 01:45:53;;;;;;;4.72;1.30;;;15.80;99.90;;;;;;5046627;28;20044;-62
2023/07/29 01:48:21;;;;;;;2.08;1.35;;;15.80;99.90;;;;;;5045396;28;20041;-63
2023/07/29 01:50:50;;;;;;;3.17;1.30;;;15.80;99.90;;;;;;5044573;28;20412;-64
2023/07/29 01:53:18;;;;;;;3.00;1.05;;;15.80;99.90;;;;;;5043238;28;20048;-59
2023/07/29 01:55:46;;;;;;;3.53;1.40;;;15.70;99.90;;;;;;5011278;28;20037;-55
2023/07/29 01:58:14;;;;;;;4.80;0.90;;;15.70;99.90;;;;;;5044614;28;20045;-63
2023/07/29 02:00:46;;;;;;;4.30;1.25;;;15.70;99.90;;;;;;5048885;28;20037;-55
2023/07/29 02:03:14;;;;;;;8.93;1.42;;;15.70;99.90;;;;;;5048096;28;20056;-62
2023/07/29 02:05:43;;;;;;;1.45;0.90;;;15.70;99.90;;;;;;5048071;28;20048;-63
2023/07/29 02:08:11;;;;;;;6.63;1.23;;;15.70;99.90;;;;;;5046593;28;20048;-56
2023/07/29 02:10:39;;;;;;;6.50;1.35;;;15.60;99.90;;;;;;5040335;28;20321;-56
2023/07/29 02:13:07;;;;;;;3.90;1.08;;;15.60;99.90;;;;;;5046065;28;20048;-55
2023/07/29 02:15:35;;;;;;;3.22;1.05;;;15.60;99.90;;;;;;5048455;28;20033;-57
2023/07/29 02:18:03;;;;;;;4.53;1.23;;;15.60;99.90;;;;;;5047674;28;20053;-55
2023/07/29 02:20:31;;;;;;;6.88;1.30;;;15.60;99.90;;;;;;5048914;28;20048;-55
2023/07/29 02:22:58;;;;;;;5.20;1.20;;;15.50;99.90;;;;;;5050628;28;20528;-56
2023/07/29 02:25:26;;;;;;;3.67;1.23;;;15.50;99.90;;;;;;5014653;28;20489;-56
2023/07/29 02:27:54;;;;;;;3.65;1.15;;;15.50;99.90;;;;;;5048107;28;20516;-59
2023/07/29 02:30:22;;;;;;;5.93;1.20;;;15.50;99.90;;;;;;5045828;28;20045;-56
2023/07/29 02:32:50;;;;;;;2.67;0.93;;;15.50;99.90;;;;;;5044244;28;20056;-58
2023/07/29 02:35:17;;;;;;;3.65;1.00;;;15.40;99.90;;;;;;5042038;28;20041;-56
2023/07/29 02:37:46;;;;;;;2.78;1.10;;;15.40;99.90;;;;;;5044094;28;20044;-56
2023/07/29 02:40:14;;;;;;;3.55;1.33;;;15.40;99.90;;;;;;5048446;28;20052;-56
2023/07/29 02:42:42;;;;;;;4.65;1.15;;;15.40;99.90;;;;;;5045628;28;20040;-55
2023/07/29 02:48:19;;;;;;;5.32;1.52;;;15.30;99.90;;;;;;5680432;23;20326;-57
2023/07/29 02:50:47;;;;;;;9.60;1.20;;;15.30;99.90;;;;;;4828592;29;20042;-56
2023/07/29 02:53:15;;;;;;;3.92;1.48;;;15.30;99.90;;;;;;4857599;29;20064;-56
2023/07/29 02:55:42;;;;;;;5.32;1.50;;;15.30;99.90;;;;;;4845421;29;20072;-58
2023/07/29 02:58:10;;;;;;;6.72;1.80;;;15.20;99.90;;;;;;4841527;29;20529;-58
2023/07/29 03:00:41;;;;;;;5.95;1.35;;;15.20;99.90;;;;;;4861806;29;20050;-57
2023/07/29 03:03:09;;;;;;;3.58;1.40;;;15.20;99.90;;;;;;4832474;29;20430;-56
2023/07/29 03:05:38;;;;;;;5.82;1.98;;;15.20;99.90;;;;;;4842424;29;20045;-56
2023/07/29 03:08:06;;;;;;;2.50;1.45;;;15.20;99.90;;;;;;4855166;29;20042;-58
2023/07/29 03:10:36;;;;;;;7.47;1.50;;;15.10;99.90;;;;;;4861324;29;20042;-56
2023/07/29 03:13:03;;;;;;;6.82;1.70;;;15.10;99.90;;;;;;4840852;29;20060;-56
2023/07/29 03:15:33;;;;;;;5.35;1.90;;;15.00;99.90;;;;;;4842700;29;20049;-57
2023/07/29 03:18:01;;;;;;;;;;;15.00;99.90;;;;;;4841584;29;20048;-56
2023/07/29 03:20:29;;;;;;;6.28;2.10;;;15.00;99.90;;;;;;4861022;29;19924;-58
2023/07/29 03:22:56;;;;;;;5.70;1.67;;;14.90;99.90;;;;;;4861111;29;20068;-57
2023/07/29 03:25:24;;;;;;;5.70;1.60;;;14.90;99.90;;;;;;4841051;29;20049;-57
2023/07/29 03:27:52;;;;;;;4.45;1.77;;;14.90;99.90;;;;;;4844755;29;20041;-57
2023/07/29 03:30:21;;;;;;;2.83;1.42;;;14.80;99.90;;;;;;4858865;29;20056;-58
2023/07/29 03:32:50;;;;;;;8.00;1.83;;;14.90;99.90;;;;;;4833444;29;21867;-59
2023/07/29 03:35:18;;;;;;;11.38;2.10;;;14.90;99.90;;;;;;4835570;29;20041;-57
2023/07/29 03:37:47;;;;;;;12.07;2.03;;;15.00;99.90;;;;;;4861003;29;20445;-57
2023/07/29 03:40:15;;;;;;;7.95;1.83;;;14.80;99.90;;;;;;4844466;29;20045;-57
2023/07/29 03:42:42;;;;;;;6.15;2.00;;;14.80;99.90;;;;;;4831730;29;20441;-57
2023/07/29 03:45:10;;;;;;;5.18;1.92;;;14.80;99.90;;;;;;4861088;29;20056;-58
2023/07/29 03:47:37;;;;;;;8.30;2.17;;;14.80;99.90;;;;;;4851312;29;20046;-57
2023/07/29 03:50:06;;;;;;;7.85;1.75;;;14.80;99.90;;;;;;4843957;29;20058;-56
2023/07/29 03:52:34;;;;;;;8.00;2.00;;;14.70;99.90;;;;;;4842258;29;20045;-56
2023/07/29 03:55:01;;;;;;;10.10;2.58;;;14.70;99.90;;;;;;4853272;29;20056;-56
2023/07/29 03:57:29;;;;;;;6.00;1.90;;;14.70;99.90;;;;;;4837461;29;20046;-57
2023/07/29 03:59:57;;;;;;;10.75;2.75;;;14.70;99.90;;;;;;4843419;29;20053;-56
2023/07/29 04:02:25;;;;;;;6.03;1.80;;;14.60;99.90;;;;;;4854349;29;20041;-57
2023/07/29 04:04:53;;;;;;;9.93;2.22;;;14.60;99.90;;;;;;4838890;29;20053;-56
2023/07/29 04:07:20;;;;;;;6.50;2.40;;;14.50;99.90;;;;;;4833831;29;20042;-57
2023/07/29 04:09:49;;;;;;;7.72;2.08;;;14.50;99.90;;;;;;4832894;29;20505;-58
2023/07/29 04:12:17;;;;;;;9.13;2.30;;;14.60;99.90;;;;;;4860430;29;20048;-57
2023/07/29 04:14:44;;;;;;;11.73;3.15;;;;;;;;;;4835394;29;20053;-57
2023/07/29 04:17:12;;;;;;;9.32;2.45;;;14.50;99.90;;;;;;4854172;29;20500;-57
2023/07/29 04:19:40;;;;;;;8.15;1.85;;;14.50;99.90;;;;;;4822082;29;20061;-57
2023/07/29 04:22:08;;;;;;;6.03;2.30;;;14.60;99.90;;;;;;4854890;29;20046;-56
2023/07/29 04:24:35;;;;;;;5.72;2.50;;;14.50;99.90;;;;;;4835250;29;20056;-57
2023/07/29 04:27:03;;;;;;;9.23;2.55;;;14.60;99.90;;;;;;4853914;29;20057;-56
2023/07/29 04:29:31;;;;;;;9.77;2.30;;;14.60;99.90;;;;;;4855328;29;20042;-56
2023/07/29 04:32:01;;;;;;;9.07;2.30;;;14.60;99.90;;;;;;4851141;29;20046;-57
2023/07/29 04:34:29;;;;;;;4.85;2.10;;;14.60;99.90;;;;;;4860189;29;20049;-56
2023/07/29 04:36:57;;;;;;;12.18;2.80;;;14.60;99.90;;;;;;4859486;29;20052;-57
2023/07/29 04:39:25;;;;;;;10.25;2.50;;;14.60;99.90;;;;;;4839724;29;20046;-58
2023/07/29 04:41:53;;;;;;;10.65;1.95;;;14.60;99.90;;;;;;4839375;29;20053;-58
2023/07/29 04:44:21;;;;;;;7.60;1.98;;;14.60;99.90;;;;;;4855175;29;20049;-57
2023/07/29 04:46:56;;;;;;;7.65;1.95;;;14.70;99.90;;;;;;4857709;29;20056;-56
2023/07/29 04:49:24;;;;;;;6.80;1.80;;;14.70;99.90;;;;;;4822766;29;20064;-56
2023/07/29 04:51:52;;;;;;;4.05;1.85;;;14.60;99.90;;;;;;4839688;29;20049;-57
2023/07/29 04:54:21;;;;;;;7.63;2.22;;;14.70;99.90;;;;;;4833486;29;20054;-58
2023/07/29 04:56:49;;;;;;;13.63;2.20;;;14.70;99.90;;;;;;4839783;29;20046;-58
2023/07/29 04:59:17;;;;;;;7.70;2.00;;;14.70;99.90;;;;;;4833624;29;20060;-57
2023/07/29 05:01:45;;;;;;;6.38;1.85;;;14.70;99.90;;;;;;4820800;29;20060;-58
2023/07/29 05:04:13;;;;;;;5.53;2.03;;;14.70;99.90;;;;;;4816278;29;20053;-58
2023/07/29 05:06:41;;;;;;;13.32;2.30;;;14.70;99.90;;;;;;4844288;29;20045;-58
2023/07/29 05:09:14;;;;;;;8.88;1.77;;;14.80;99.90;;;;;;4833116;29;20046;-57
2023/07/29 05:11:44;;;;;;;6.32;1.65;;;14.70;99.90;;;;;;4833472;29;20046;-58
2023/07/29 05:14:13;;;;;;;11.27;2.05;;;14.70;99.90;;;;;;4847325;29;20042;-58
2023/07/29 05:16:42;;;;;;;5.32;1.90;;;14.70;99.90;;;;;;4836179;29;20048;-56
2023/07/29 05:19:10;;;;;;;9.20;2.13;;;14.70;99.90;;;;;;4832099;29;20053;-57
2023/07/29 05:21:38;;;;;;;8.02;2.25;;;14.60;99.90;;;;;;4835970;29;20061;-57
2023/07/29 05:24:06;;;;;;;13.77;2.33;;;14.70;99.90;;;;;;4834041;29;20536;-59
2023/07/29 05:26:34;;;;;;;8.07;2.20;;;14.70;99.90;;;;;;4833385;29;20057;-58
2023/07/29 05:29:03;;;;;;;9.20;1.77;;;14.70;99.90;;;;;;4835589;29;20041;-58
2023/07/29 05:31:31;;;;;;;5.40;1.75;;;14.70;99.90;;;;;;4834990;29;20052;-58
2023/07/29 05:33:59;;;;;;;10.45;2.25;;;14.70;99.90;;;;;;4832444;29;20053;-58
2023/07/29 05:36:27;;;;;;;9.00;1.98;;;14.70;99.90;;;;;;4823287;29;20038;-58
2023/07/29 05:38:55;;;;;;;9.65;2.17;;;14.80;99.90;;;;;;4838916;29;20049;-58
2023/07/29 05:41:23;;;;;;;4.03;1.52;;;14.80;99.90;;;;;;4826327;29;20038;-57
2023/07/29 05:43:51;;;;;;;6.60;1.50;;;14.60;99.90;;;;;;4844087;29;20050;-57
2023/07/29 05:46:19;;;;;;;4.38;1.90;;;14.80;99.90;;;;;;4824578;29;20057;-58
2023/07/29 05:48:46;;;;;;;7.15;2.10;;;14.80;99.90;;;;;;4843864;29;20052;-57
2023/07/29 05:51:14;;;;;;;11.10;2.67;;;14.90;99.90;;;;;;4849203;29;20064;-58
2023/07/29 05:53:42;;;;;;;9.55;2.35;;;14.80;99.90;;;;;;4846437;29;20041;-58
2023/07/29 05:56:10;;;;;;;4.95;2.17;;;14.80;99.90;;;;;;4847208;29;20054;-58
2023/07/29 05:58:38;;;;;;;6.53;2.05;;;;;;;;;;4850152;29;20053;-58
2023/07/29 06:01:07;;;;;;;15.47;2.43;;;14.80;99.90;;;;;;4833396;29;20661;-58
2023/07/29 06:03:35;;;;;;;7.50;2.10;;;14.70;99.90;;;;;;4812667;29;20309;-57
2023/07/29 06:06:03;;;;;;;11.93;2.50;;;14.70;99.90;;;;;;4842554;29;20566;-57
2023/07/29 06:08:34;;;;;;;8.88;2.55;;;14.80;99.90;;;;;;4834161;29;20386;-62
2023/07/29 06:11:02;;;;;;;4.80;1.80;;;14.90;99.90;;;;;;4844682;29;20413;-57
2023/07/29 06:13:29;;;;;;;7.20;1.98;;;14.90;99.90;;;;;;4851128;29;20500;-57
2023/07/29 06:15:58;;;;;;;5.65;1.83;;;15.10;99.90;;;;;;4830245;29;20054;-58
2023/07/29 06:18:26;;;;;;;9.07;2.05;;;15.10;99.90;;;;;;4830268;29;20054;-57
2023/07/29 06:20:54;;;;;;;7.45;2.30;;;15.20;99.90;;;;;;4825477;29;20044;-57
2023/07/29 06:23:22;;;;;;;8.05;2.55;;;15.30;99.90;;;;;;4831537;29;20077;-57
2023/07/29 06:25:51;;;;;;;10.50;2.03;;;15.10;99.90;;;;;;4814524;29;20129;-57
2023/07/29 06:28:19;;;;;;;15.07;2.78;;;15.40;99.90;;;;;;4841738;29;20049;-57
2023/07/29 06:30:46;;;;;;;11.02;2.40;;;15.40;99.90;;;;;;4833068;29;20468;-57
2023/07/29 06:33:14;;;;;;;4.97;2.28;;;15.50;99.90;;;;;;4850119;29;20049;-57
2023/07/29 06:35:42;;;;;;;5.70;1.90;;;15.60;99.90;;;;;;4853563;29;20057;-57
2023/07/29 06:38:10;;;;;;;7.82;2.70;;;15.60;99.90;;;;;;4849961;29;20041;-59
2023/07/29 06:40:38;;;;;;;5.95;1.67;;;15.80;99.90;;;;;;4851462;29;20049;-57
2023/07/29 06:43:05;;;;;;;5.07;2.30;;;15.90;99.90;;;;;;4838899;29;20045;-57
2023/07/29 06:45:33;;;;;;;6.25;1.88;;;15.90;99.90;;;;;;4858492;29;20054;-57
2023/07/29 06:48:01;;;;;;;6.75;1.98;;;15.90;99.90;;;;;;4858167;29;20397;-57
2023/07/29 06:50:29;;;;;;;8.38;2.10;;;16.00;99.90;;;;;;4846822;29;20060;-57
2023/07/29 06:52:56;;;;;;;9.27;1.85;;;16.00;99.90;;;;;;4854208;29;20053;-58
2023/07/29 06:55:24;;;;;;;11.55;1.98;;;;;;;;;;4857165;29;20056;-58
2023/07/29 06:57:53;;;;;;;9.77;1.83;;;;;;;;;;4842443;29;20046;-58
2023/07/29 07:00:21;;;;;;;10.30;2.17;;;16.10;99.90;;;;;;4845938;29;20061;-58
2023/07/29 07:02:49;;;;;;;14.93;2.88;;;16.20;99.90;;;;;;4823799;29;20405;-57
2023/07/29 07:05:17;;;;;;;7.57;2.17;;;16.20;99.90;;;;;;4828441;29;20046;-57
2023/07/29 07:07:45;;;;;;;3.65;1.73;;;16.30;99.90;;;;;;4854575;29;20052;-58
2023/07/29 07:10:15;;;;;;;6.75;2.03;;;16.30;99.90;;;;;;4845021;29;20054;-57
2023/07/29 07:12:43;;;;;;;10.40;2.05;;;16.30;99.90;;;;;;4830567;29;20052;-58
2023/07/29 07:15:10;;;;;;;6.15;1.90;;;16.40;99.90;;;;;;4842980;29;20061;-58
2023/07/29 07:17:38;;;;;;;9.63;1.70;;;16.50;99.90;;;;;;4844455;29;20068;-57
2023/07/29 07:20:07;;;;;;;10.07;2.22;;;16.60;99.90;;;;;;4829441;29;20045;-57
2023/07/29 07:22:35;;;;;;;11.00;2.85;;;17.40;99.90;;;;;;4839480;29;20049;-57
2023/07/29 07:25:03;;;;;;;9.07;1.40;;;16.60;99.90;;;;;;4850377;29;20501;-57
2023/07/29 07:27:33;;;;;;;5.40;1.30;;;16.60;99.90;;;;;;4846747;29;20045;-56
2023/07/29 07:30:01;;;;;;;6.80;1.48;;;16.60;99.90;;;;;;4848956;29;20049;-56
2023/07/29 07:32:29;;;;;;;7.25;1.55;;;16.60;99.90;;;;;;4849832;29;20046;-57
2023/07/29 07:34:57;;;;;;;6.63;1.45;;;16.70;99.90;;;;;;4848257;29;20041;-57
2023/07/29 07:37:24;;;;;;;6.55;1.45;;;16.70;99.90;;;;;;4848549;29;20147;-57
2023/07/29 07:39:52;;;;;;;6.90;1.90;;;16.80;99.90;;;;;;4848334;29;20072;-57
2023/07/29 07:42:20;;;;;;;4.97;1.88;;;;;;;;;;4853177;29;20054;-57
2023/07/29 07:44:48;;;;;;;6.40;1.35;;;16.90;99.90;;;;;;4832890;29;20107;-57
2023/07/29 07:47:16;;;;;;;8.57;1.75;;;16.90;99.90;;;;;;4835747;29;20080;-57
2023/07/29 07:49:44;;;;;;;4.70;1.60;;;17.00;99.90;;;;;;4834300;29;20056;-57
2023/07/29 07:52:11;;;;;;;8.98;1.88;;;17.00;99.90;;;;;;4847930;29;20057;-57
2023/07/29 07:54:39;;;;;;;8.13;1.83;;;17.10;99.90;;;;;;4849287;29;20493;-57
2023/07/29 07:57:07;;;;;;;5.88;1.70;;;17.10;99.90;;;;;;4852749;29;20490;-57
2023/07/29 07:59:34;;;;;;;6.85;1.35;;;17.10;99.90;;;;;;4839555;29;20073;-58
2023/07/29 08:02:03;;;;;;;5.80;1.77;;;17.20;99.90;;;;;;4850753;29;20054;-59
2023/07/29 08:04:31;;;;;;;7.53;1.63;;;17.30;99.90;;;;;;4848738;29;20045;-58
2023/07/29 08:06:59;;;;;;;6.97;1.70;;;;;;;;;;4849433;29;20274;-58
2023/07/29 08:09:26;;;;;;;6.03;1.80;;;17.30;99.90;;;;;;4835554;29;20062;-57
2023/07/29 08:11:55;;;;;;;4.25;1.55;;;;;;;;;;4853560;29;20394;-58
2023/07/29 08:14:23;;;;;;;6.10;1.65;;;17.00;99.90;;;;;;4825347;29;20406;-57
2023/07/29 08:16:51;;;;;;;5.68;1.63;;;17.00;99.90;;;;;;4843770;29;20061;-58
2023/07/29 08:19:19;;;;;;;6.55;1.50;;;16.90;99.90;;;;;;4842896;29;20066;-58
2023/07/29 08:21:49;;;;;;;7.43;1.75;;;16.90;99.90;;;;;;4850606;29;20053;-57
2023/07/29 08:24:17;;;;;;;12.93;1.65;;;17.00;99.90;;;;;;4838011;29;20430;-56
2023/07/29 08:26:45;;;;;;;6.78;1.65;;;17.00;99.90;;;;;;4844699;29;20436;-57
2023/07/29 08:29:13;;;;;;;8.68;1.88;;;17.00;99.90;;;;;;4837283;29;20045;-57
2023/07/29 08:31:41;;;;;;;8.75;1.60;;;17.10;99.90;;;;;;4829191;29;20054;-56
2023/07/29 08:34:09;;;;;;;8.00;1.50;;;17.10;99.90;;;;;;4843914;29;20046;-57
2023/07/29 08:36:37;;;;;;;5.25;1.40;;;17.20;99.90;;;;;;4835790;29;20053;-56
2023/07/29 08:39:06;;;;;;;6.53;1.55;;;17.30;99.90;;;;;;4839093;29;20041;-57
2023/07/29 08:42:11;;;;;;;12.63;2.45;;;17.40;99.90;;;;;;4852305;29;20409;-58
2023/07/29 08:44:44;;;;;;;9.68;2.58;;;17.50;99.90;;;;;;4830865;29;20061;-57
2023/07/29 08:47:16;;;;;;;5.47;1.85;;;17.50;99.90;;;;;;4849741;29;20057;-58
2023/07/29 08:49:46;;;;;;;6.63;2.00;;;17.70;99.90;;;;;;4838838;29;20394;-57
2023/07/29 08:52:14;;;;;;;7.25;2.08;;;17.60;99.90;;;;;;4835907;29;20056;-58
2023/07/29 08:54:42;;;;;;;11.20;1.98;;;17.70;99.90;;;;;;4845413;29;20046;-58
2023/07/29 08:57:10;;;;;;;11.80;2.45;;;17.70;99.90;;;;;;4838227;29;20053;-58
2023/07/29 08:59:39;;;;;;;5.72;1.63;;;17.90;99.90;;;;;;4850061;29;20512;-58
2023/07/29 09:02:08;;;;;;;6.57;1.40;;;;;;;;;;4829603;29;20042;-57
2023/07/29 09:04:35;;;;;;;4.93;0.77;;;17.90;99.90;;;;;;4826192;29;20058;-58
2023/07/29 09:07:06;;;;;;;5.22;1.17;;;18.20;99.90;;;;;;4812432;29;20289;-57
2023/07/29 09:09:34;;;;;;;5.97;1.00;;;18.10;99.90;;;;;;4826888;29;20058;-59
2023/07/29 09:12:02;;;;;;;7.50;1.33;;;18.30;99.90;;;;;;4821435;29;20060;-58
2023/07/29 09:14:30;;;;;;;4.97;1.55;;;18.40;99.90;;;;;;4843498;29;20045;-59
2023/07/29 09:16:59;;;;;;;3.97;1.50;;;18.40;99.90;;;;;;4848714;29;20046;-59
2023/07/29 09:19:28;;;;;;;4.60;1.15;;;18.40;99.90;;;;;;4840124;29;20049;-59
2023/07/29 09:21:56;;;;;;;7.03;1.80;;;;;;;;;;4836960;29;20065;-56
2023/07/29 09:24:25;;;;;;;10.63;1.60;;;;;;;;;;4830746;29;20049;-57
2023/07/29 09:26:54;;;;;;;10.05;2.00;;;18.40;99.90;;;;;;4816844;29;20069;-57
2023/07/29 09:29:23;;;;;;;2.83;0.90;;;18.30;99.90;;;;;;4840819;29;20046;-57
2023/07/29 09:31:51;;;;;;;10.45;1.67;;;18.20;99.90;;;;;;4835186;29;20053;-57
2023/07/29 09:34:19;;;;;;;6.63;1.13;;;17.30;99.90;;;;;;4840033;29;20230;-57
2023/07/29 09:36:51;;;;;;;3.85;1.35;;;16.90;99.90;;;;;;4838590;29;20049;-57
2023/07/29 09:39:22;;;;;;;7.30;1.35;;;16.70;99.90;;;;;;4839714;29;20046;-57
2023/07/29 09:41:51;;;;;;;7.28;1.27;;;16.40;99.90;;;;;;4825113;29;20069;-58
2023/07/29 09:44:19;;;;;;;4.50;1.08;;;16.30;99.90;;;;;;4809863;29;20041;-58
2023/07/29 09:46:50;;;;;;;7.18;0.90;;;16.30;99.90;;;;;;4826389;29;20058;-59
2023/07/29 09:49:18;;;;;;;7.65;0.85;;;16.30;99.90;;;;;;4812662;29;20050;-58
2023/07/29 09:51:46;;;;;;;6.50;1.55;;;16.40;99.90;;;;;;4830532;29;20515;-58
2023/07/29 09:54:15;;;;;;;4.85;0.98;;;16.40;99.90;;;;;;4831952;29;20486;-58
2023/07/29 09:56:44;;;;;;;4.47;1.67;;;16.50;99.90;;;;;;4819619;29;20046;-56
2023/07/29 09:59:12;;;;;;;9.10;2.20;;;16.50;99.90;;;;;;4810956;29;20506;-57
2023/07/29 10:01:41;;;;;;;6.10;1.88;;;16.60;99.90;;;;;;4814879;29;20060;-57
2023/07/29 10:04:10;;;;;;;10.70;1.40;;;16.70;99.90;;;;;;4827904;29;20046;-57
2023/07/29 10:06:42;;;;;;;15.13;1.88;;;16.90;99.90;;;;;;4822756;29;20060;-57
2023/07/29 10:09:12;;;;;;;12.63;2.33;;;17.20;99.90;;;;;;4813708;29;20042;-57
2023/07/29 10:11:41;;;;;;;8.73;1.83;;;17.30;99.90;;;;;;4830778;29;20494;-58
2023/07/29 10:14:09;;;;;;;11.05;1.50;;;17.50;99.90;;;;;;4825276;29;20057;-57
2023/07/29 10:16:37;;;;;;;5.38;1.10;;;17.70;99.90;;;;;;4809917;29;20049;-57
2023/07/29 10:19:08;;;;;;;6.88;1.40;;;17.90;99.90;;;;;;4825557;29;20057;-57
2023/07/29 10:21:39;;;;;;;7.13;1.00;;;18.10;99.90;;;;;;4821234;29;20052;-58
2023/07/29 10:24:14;;;;;;;9.20;3.10;;;18.10;99.90;;;;;;4827362;29;20049;-57
2023/07/29 10:26:46;;;;;;;16.60;3.88;;;18.40;99.90;;;;;;4830459;29;20505;-57
2023/07/29 10:29:17;;;;;;;8.55;1.98;;;18.60;99.90;;;;;;4814568;29;20527;-58
2023/07/29 10:31:45;;;;;;;2.22;1.02;;;18.60;99.90;;;;;;4812678;29;20057;-58
2023/07/29 10:34:14;;;;;;;7.63;1.30;;;18.90;99.90;;;;;;4839524;29;20061;-60
2023/07/29 10:36:42;;;;;;;6.87;1.93;;;19.00;99.90;;;;;;4843025;29;20053;-59
2023/07/29 10:39:10;;;;;;;5.53;0.95;;;19.10;99.90;;;;;;4816757;29;20093;-59
2023/07/29 10:42:02;;;;;;;15.40;1.30;;;19.10;99.90;;;;;;4808847;29;20065;-58
2023/07/29 10:44:42;;;;;;;6.00;1.10;;;19.10;99.90;;;;;;4831781;29;20092;-59
2023/07/29 10:47:13;;;;;;;2.78;0.85;;;19.10;99.90;;;;;;4828220;29;20490;-60
2023/07/29 10:49:45;;;;;;;3.63;0.75;;;19.00;99.90;;;;;;4831613;29;20715;-59
2023/07/29 10:52:15;;;;;;;5.47;0.85;;;19.00;99.90;;;;;;4829550;29;20058;-60
2023/07/29 10:54:44;;;;;;;;;;;19.00;99.90;;;;;;4830373;29;20061;-59
2023/07/29 10:57:30;;;;;;;3.88;1.15;;;18.90;99.90;;;;;;4815444;29;19933;-59
2023/07/29 10:59:59;;;;;;;6.60;1.30;;;;;;;;;;4839025;29;20585;-59
2023/07/29 11:02:34;;;;;;;3.10;1.23;;;19.00;99.90;;;;;;4837455;29;20054;-59
2023/07/29 11:05:26;;;;;;;4.00;0.82;;;19.20;99.90;;;;;;4828618;29;20050;-60
2023/07/29 11:07:54;;;;;;;4.28;1.45;;;19.30;99.90;;;;;;4829363;29;20050;-60
2023/07/29 11:10:22;;;;;;;3.17;0.75;;;;;;;;;;4831132;29;20042;-58
2023/07/29 11:12:51;;;;;;;4.07;0.80;;;19.70;99.90;;;;;;4838578;29;20046;-59
2023/07/29 11:15:21;;;;;;;5.88;1.02;;;19.90;99.90;;;;;;4841496;29;20132;-59
2023/07/29 11:17:51;;;;;;;2.47;0.98;;;20.10;99.90;;;;;;4845594;29;20049;-59
2023/07/29 11:20:22;;;;;;;7.80;0.88;;;20.30;99.90;;;;;;4836036;29;20519;-58
2023/07/29 11:22:50;;;;;;;1.90;0.98;;;20.50;99.90;;;;;;4836688;29;20046;-59
2023/07/29 11:25:19;;;;;;;13.35;1.35;;;20.60;99.90;;;;;;4847293;29;20045;-58
2023/07/29 11:27:47;;;;;;;4.32;1.00;;;20.70;99.90;;;;;;4838204;29;20061;-59
2023/07/29 11:30:16;;;;;;;8.15;1.33;;;20.90;99.90;;;;;;4834277;29;20564;-59
2023/07/29 11:32:45;;;;;;;3.17;1.45;;;20.90;99.90;;;;;;4826390;29;20056;-57
2023/07/29 11:35:16;;;;;;;4.82;1.17;;;21.20;99.90;;;;;;4841742;29;20034;-58
2023/07/29 11:37:49;;;;;;;2.92;1.00;;;21.40;99.90;;;;;;4854069;29;20064;-58
2023/07/29 11:40:19;;;;;;;3.13;0.50;;;21.40;99.90;;;;;;4835396;29;20069;-58
2023/07/29 11:42:47;;;;;;;;;;;21.50;99.90;;;;;;4811700;29;20490;-58
2023/07/29 11:45:15;;;;;;;3.22;0.55;;;21.40;99.90;;;;;;4830279;29;19931;-58
2023/07/29 11:47:45;;;;;;;8.00;1.13;;;21.40;99.90;;;;;;4828758;29;20050;-58
2023/07/29 11:50:15;;;;;;;8.05;0.93;;;21.50;99.90;;;;;;4828332;29;20055;-58
2023/07/29 11:52:45;;;;;;;4.87;1.10;;;21.40;99.90;;;;;;4822084;29;20053;-58
2023/07/29 11:55:14;;;;;;;;;;;21.40;99.90;;;;;;4832898;29;20406;-57
2023/07/29 11:57:44;;;;;;;9.07;1.50;;;21.50;99.90;;;;;;4833557;29;19924;-57
2023/07/29 12:00:12;;;;;;;4.60;0.68;;;21.50;99.90;;;;;;4842377;29;20409;-58
2023/07/29 12:02:45;;;;;;;1.65;0.55;;;21.40;99.90;;;;;;4848674;29;20058;-58
2023/07/29 12:05:14;;;;;;;2.40;0.70;;;21.60;99.90;;;;;;4813546;29;20049;-58
2023/07/29 12:07:44;;;;;;;2.15;0.63;;;21.60;99.90;;;;;;4810369;29;20543;-58
2023/07/29 12:10:12;;;;;;;1.95;0.77;;;21.70;99.90;;;;;;4834734;29;20068;-59
2023/07/29 12:12:48;;;;;;;9.18;0.75;;;22.00;99.90;;;;;;4809668;29;20662;-59
2023/07/29 12:15:26;;;;;;;7.53;0.68;;;22.20;99.90;;;;;;4828916;29;20053;-59
2023/07/29 12:17:56;;;;;;;1.90;0.80;;;22.20;99.90;;;;;;4842663;29;20053;-58
2023/07/29 12:20:26;;;;;;;1.70;0.82;;;22.40;99.80;;;;;;4830715;29;20050;-59
2023/07/29 12:22:58;;;;;;;1.60;0.85;;;22.40;99.30;;;;;;4824911;29;20066;-59
2023/07/29 12:25:27;;;;;;;4.00;0.93;;;22.30;99.70;;;;;;4830431;29;20050;-58
2023/07/29 12:27:55;;;;;;;2.90;1.13;;;22.20;99.90;;;;;;4817347;29;20062;-59
2023/07/29 12:30:24;;;;;;;3.58;0.55;;;22.30;99.90;;;;;;4839778;29;20052;-60
2023/07/29 12:32:52;;;;;;;1.45;0.52;;;22.70;99.90;;;;;;4847460;29;20063;-60
2023/07/29 12:35:21;;;;;;;6.70;0.50;;;;;;;;;;4843927;29;20041;-59
2023/07/29 12:38:00;;;;;;;0.87;0.30;;;;;;;;;;4824826;29;20053;-60
2023/07/29 12:40:28;;;;;;;21.50;2.03;;;23.90;97.50;;;;;;4824386;29;20116;-60
2023/07/29 12:42:56;;;;;;;4.80;0.77;;;24.30;97.80;;;;;;4814219;29;20421;-61
2023/07/29 12:45:26;;;;;;;3.42;0.70;;;24.60;96.50;;;;;;4842635;29;20516;-62
2023/07/29 12:47:56;;;;;;;4.47;0.75;;;24.80;95.20;;;;;;4841453;29;20053;-61
2023/07/29 12:50:23;;;;;;;3.88;0.75;;;24.60;94.90;;;;;;4842781;29;20052;-60
2023/07/29 12:52:51;;;;;;;4.70;0.57;;;24.40;94.90;;;;;;4835419;29;20065;-61
2023/07/29 12:55:19;;;;;;;2.80;0.55;;;24.20;95.50;;;;;;4830403;29;20057;-61
2023/07/29 12:57:50;;;;;;;6.32;0.93;;;24.50;95.70;;;;;;4850121;29;20066;-57
2023/07/29 13:00:19;;;;;;;3.17;0.75;;;24.90;95.00;;;;;;4835483;29;20383;-60
2023/07/29 13:02:46;;;;;;;3.78;0.50;;;24.80;95.20;;;;;;4832246;29;20061;-60